sensor_id;sensor_type;location;lat;lon;timestamp;pressure;altitude;pressure_sealevel;temperature;humidity
10732;BME280;5417;42.686;23.244;2022-11-15T00:01:36;94884.97;;;7.20;73.45
10732;BME280;5417;42.686;23.244;2022-11-15T00:04:04;94867.97;;;7.16;73.08
10732;BME280;5417;42.686;23.244;2022-11-15T00:06:31;94882.38;;;7.20;73.72
10732;BME280;5417;42.686;23.244;2022-11-15T00:09:02;94869.81;;;7.14;73.59
10732;BME280;5417;42.686;23.244;2022-11-15T00:11:29;94877.50;;;7.15;73.33
10732;BME280;5417;42.686;23.244;2022-11-15T00:14:02;94875.75;;;7.16;73.52
10732;BME280;5417;42.686;23.244;2022-11-15T00:16:29;94870.56;;;7.16;74.33
10732;BME280;5417;42.686;23.244;2022-11-15T00:18:56;94866.41;;;7.13;74.37
10732;BME280;5417;42.686;23.244;2022-11-15T00:21:25;94863.91;;;7.12;73.56
10732;BME280;5417;42.686;23.244;2022-11-15T00:24:01;94868.91;;;7.15;73.10
10732;BME280;5417;42.686;23.244;2022-11-15T00:26:28;94868.91;;;7.15;73.90
10732;BME280;5417;42.686;23.244;2022-11-15T00:28:56;94837.75;;;7.02;74.29
10732;BME280;5417;42.686;23.244;2022-11-15T00:31:33;94859.53;;;7.26;75.99
10732;BME280;5417;42.686;23.244;2022-11-15T00:34:00;94862.44;;;7.36;77.13
10732;BME280;5417;42.686;23.244;2022-11-15T00:36:27;94860.50;;;7.40;76.30
10732;BME280;5417;42.686;23.244;2022-11-15T00:39:05;94862.44;;;7.36;75.32
10732;BME280;5417;42.686;23.244;2022-11-15T00:41:32;94851.03;;;7.24;74.61
10732;BME280;5417;42.686;23.244;2022-11-15T00:44:02;94839.50;;;7.16;73.97
10732;BME280;5417;42.686;23.244;2022-11-15T00:46:29;94846.97;;;7.20;73.55
10732;BME280;5417;42.686;23.244;2022-11-15T00:48:58;94844.78;;;7.14;73.46
10732;BME280;5417;42.686;23.244;2022-11-15T00:51:25;94856.97;;;7.12;73.79
10732;BME280;5417;42.686;23.244;2022-11-15T00:53:52;94856.31;;;7.09;72.94
10732;BME280;5417;42.686;23.244;2022-11-15T00:56:27;94859.94;;;7.06;72.70
10732;BME280;5417;42.686;23.244;2022-11-15T00:59:02;94846.81;;;6.95;73.58
10732;BME280;5417;42.686;23.244;2022-11-15T01:01:31;94850.31;;;6.94;73.35
10732;BME280;5417;42.686;23.244;2022-11-15T01:04:05;94847.09;;;6.90;73.51
10732;BME280;5417;42.686;23.244;2022-11-15T01:06:37;94839.41;;;6.89;73.09
10732;BME280;5417;42.686;23.244;2022-11-15T01:09:05;94830.47;;;6.80;72.99
10732;BME280;5417;42.686;23.244;2022-11-15T01:11:33;94837.94;;;6.85;73.52
10732;BME280;5417;42.686;23.244;2022-11-15T01:14:00;94840.53;;;6.85;73.62
10732;BME280;5417;42.686;23.244;2022-11-15T01:16:38;94849.78;;;6.89;74.08
10732;BME280;5417;42.686;23.244;2022-11-15T01:19:06;94839.22;;;6.78;73.46
10732;BME280;5417;42.686;23.244;2022-11-15T01:21:33;94853.47;;;6.85;73.79
10732;BME280;5417;42.686;23.244;2022-11-15T01:24:01;94839.38;;;6.75;73.22
10732;BME280;5417;42.686;23.244;2022-11-15T01:26:33;94851.06;;;6.82;73.74
10732;BME280;5417;42.686;23.244;2022-11-15T01:29:02;94841.06;;;6.76;74.03
10732;BME280;5417;42.686;23.244;2022-11-15T01:31:31;94841.06;;;6.76;74.39
10732;BME280;5417;42.686;23.244;2022-11-15T01:34:06;94836.66;;;6.78;74.00
10732;BME280;5417;42.686;23.244;2022-11-15T01:36:33;94845.97;;;6.80;73.76
10732;BME280;5417;42.686;23.244;2022-11-15T01:39:04;94837.47;;;6.78;73.37
10732;BME280;5417;42.686;23.244;2022-11-15T01:41:33;94831.47;;;6.78;73.89
10732;BME280;5417;42.686;23.244;2022-11-15T01:44:36;94820.44;;;6.74;74.23
10732;BME280;5417;42.686;23.244;2022-11-15T01:47:24;94836.56;;;6.79;75.11
10732;BME280;5417;42.686;23.244;2022-11-15T01:50:01;94835.63;;;6.80;74.37
10732;BME280;5417;42.686;23.244;2022-11-15T01:52:32;94824.03;;;6.72;73.95
10732;BME280;5417;42.686;23.244;2022-11-15T01:55:05;94831.53;;;6.76;74.27
10732;BME280;5417;42.686;23.244;2022-11-15T01:57:36;94831.72;;;6.73;74.11
10732;BME280;5417;42.686;23.244;2022-11-15T02:00:06;94829.03;;;6.75;74.42
10732;BME280;5417;42.686;23.244;2022-11-15T02:02:35;94830.69;;;6.76;73.86
10732;BME280;5417;42.686;23.244;2022-11-15T02:05:03;94840.22;;;6.75;74.25
10732;BME280;5417;42.686;23.244;2022-11-15T02:07:31;94825.72;;;6.73;74.31
10732;BME280;5417;42.686;23.244;2022-11-15T02:10:08;94826.22;;;6.79;74.60
10732;BME280;5417;42.686;23.244;2022-11-15T02:12:38;94828.78;;;6.79;74.24
10732;BME280;5417;42.686;23.244;2022-11-15T02:15:10;94821.97;;;6.78;74.59
10732;BME280;5417;42.686;23.244;2022-11-15T02:17:52;94810.47;;;6.68;74.83
10732;BME280;5417;42.686;23.244;2022-11-15T02:20:46;94825.63;;;6.74;73.97
10732;BME280;5417;42.686;23.244;2022-11-15T02:29:53;94827.56;;;6.71;74.52
10732;BME280;5417;42.686;23.244;2022-11-15T02:32:29;94816.47;;;6.69;74.00
10732;BME280;5417;42.686;23.244;2022-11-15T02:35:08;94804.28;;;6.56;74.70
10732;BME280;5417;42.686;23.244;2022-11-15T02:37:44;94812.97;;;6.70;74.77
10732;BME280;5417;42.686;23.244;2022-11-15T02:40:17;94801.97;;;6.66;75.12
10732;BME280;5417;42.686;23.244;2022-11-15T02:42:53;94821.38;;;6.73;75.03
10732;BME280;5417;42.686;23.244;2022-11-15T02:45:44;94821.66;;;6.69;74.35
10732;BME280;5417;42.686;23.244;2022-11-15T02:48:16;94819.16;;;6.67;74.94
10732;BME280;5417;42.686;23.244;2022-11-15T02:50:46;94817.66;;;6.63;74.25
10732;BME280;5417;42.686;23.244;2022-11-15T02:53:24;94812.03;;;6.56;73.60
10732;BME280;5417;42.686;23.244;2022-11-15T02:55:53;94813.03;;;6.54;74.31
10732;BME280;5417;42.686;23.244;2022-11-15T03:01:12;94810.09;;;6.46;73.83
10732;BME280;5417;42.686;23.244;2022-11-15T03:03:55;94825.25;;;6.52;74.45
10732;BME280;5417;42.686;23.244;2022-11-15T03:06:32;94823.69;;;6.63;75.16
10732;BME280;5417;42.686;23.244;2022-11-15T03:09:06;94822.94;;;6.61;74.54
10732;BME280;5417;42.686;23.244;2022-11-15T03:11:39;94816.09;;;6.60;74.41
10732;BME280;5417;42.686;23.244;2022-11-15T03:14:17;94816.19;;;6.59;74.39
10732;BME280;5417;42.686;23.244;2022-11-15T03:16:51;94814.34;;;6.61;74.70
10732;BME280;5417;42.686;23.244;2022-11-15T03:19:45;94815.72;;;6.67;76.14
10732;BME280;5417;42.686;23.244;2022-11-15T03:22:16;94809.91;;;6.63;75.45
10732;BME280;5417;42.686;23.244;2022-11-15T03:24:52;94814.63;;;6.71;75.47
10732;BME280;5417;42.686;23.244;2022-11-15T03:27:23;94806.69;;;6.74;75.78
10732;BME280;5417;42.686;23.244;2022-11-15T03:29:56;94808.19;;;6.78;76.20
10732;BME280;5417;42.686;23.244;2022-11-15T03:32:26;94809.56;;;6.83;75.95
10732;BME280;5417;42.686;23.244;2022-11-15T03:34:58;94814.56;;;6.86;75.90
10732;BME280;5417;42.686;23.244;2022-11-15T03:37:32;94790.44;;;6.86;76.94
10732;BME280;5417;42.686;23.244;2022-11-15T03:40:05;94792.00;;;6.88;77.22
10732;BME280;5417;42.686;23.244;2022-11-15T03:42:37;94805.31;;;6.96;76.66
10732;BME280;5417;42.686;23.244;2022-11-15T03:45:14;94791.84;;;6.91;76.76
10732;BME280;5417;42.686;23.244;2022-11-15T03:47:46;94793.13;;;6.99;76.69
10732;BME280;5417;42.686;23.244;2022-11-15T03:50:20;94795.50;;;7.02;76.74
10732;BME280;5417;42.686;23.244;2022-11-15T03:52:49;94791.16;;;7.02;75.81
10732;BME280;5417;42.686;23.244;2022-11-15T03:55:19;94787.94;;;6.99;76.07
10732;BME280;5417;42.686;23.244;2022-11-15T03:57:56;94775.75;;;7.01;76.75
10732;BME280;5417;42.686;23.244;2022-11-15T04:00:26;94767.25;;;6.99;76.89
10732;BME280;5417;42.686;23.244;2022-11-15T04:03:00;94777.03;;;7.08;76.33
10732;BME280;5417;42.686;23.244;2022-11-15T04:05:29;94780.44;;;7.08;76.53
10732;BME280;5417;42.686;23.244;2022-11-15T04:07:58;94779.31;;;7.12;77.44
10732;BME280;5417;42.686;23.244;2022-11-15T04:10:32;94772.38;;;7.13;76.80
10732;BME280;5417;42.686;23.244;2022-11-15T04:12:59;94775.72;;;7.15;77.41
10732;BME280;5417;42.686;23.244;2022-11-15T04:15:26;94772.19;;;7.16;77.70
10732;BME280;5417;42.686;23.244;2022-11-15T04:17:55;94773.13;;;7.15;77.80
10732;BME280;5417;42.686;23.244;2022-11-15T04:20:27;94767.03;;;7.16;77.32
10732;BME280;5417;42.686;23.244;2022-11-15T04:23:15;94771.06;;;7.20;77.81
10732;BME280;5417;42.686;23.244;2022-11-15T04:26:03;94776.16;;;7.21;77.51
10732;BME280;5417;42.686;23.244;2022-11-15T04:28:34;94774.50;;;7.20;77.08
10732;BME280;5417;42.686;23.244;2022-11-15T04:31:29;94772.34;;;7.41;74.14
10732;BME280;5417;42.686;23.244;2022-11-15T04:33:56;94772.25;;;7.43;73.16
10732;BME280;5417;42.686;23.244;2022-11-15T04:36:23;94771.31;;;7.44;73.10
10732;BME280;5417;42.686;23.244;2022-11-15T04:39:11;94774.09;;;7.41;73.59
10732;BME280;5417;42.686;23.244;2022-11-15T04:41:38;94771.06;;;7.34;73.61
10732;BME280;5417;42.686;23.244;2022-11-15T04:44:06;94777.53;;;7.27;73.45
10732;BME280;5417;42.686;23.244;2022-11-15T04:46:33;94774.88;;;7.14;73.48
10732;BME280;5417;42.686;23.244;2022-11-15T04:49:00;94766.78;;;6.92;73.52
10732;BME280;5417;42.686;23.244;2022-11-15T04:51:27;94780.94;;;6.86;75.12
10732;BME280;5417;42.686;23.244;2022-11-15T04:53:54;94776.56;;;6.73;75.63
10732;BME280;5417;42.686;23.244;2022-11-15T04:56:27;94769.91;;;6.69;75.96
10732;BME280;5417;42.686;23.244;2022-11-15T04:58:57;94778.59;;;6.68;76.68
10732;BME280;5417;42.686;23.244;2022-11-15T05:01:24;94785.16;;;6.73;76.38
10732;BME280;5417;42.686;23.244;2022-11-15T05:03:51;94785.25;;;6.57;76.40
10732;BME280;5417;42.686;23.244;2022-11-15T05:06:36;94781.47;;;6.49;77.99
10732;BME280;5417;42.686;23.244;2022-11-15T05:09:03;94788.75;;;6.42;78.93
10732;BME280;5417;42.686;23.244;2022-11-15T05:11:34;94762.16;;;6.26;78.85
10732;BME280;5417;42.686;23.244;2022-11-15T05:14:01;94785.22;;;6.29;80.08
10732;BME280;5417;42.686;23.244;2022-11-15T05:16:30;94787.81;;;6.29;80.88
10732;BME280;5417;42.686;23.244;2022-11-15T05:18:57;94774.97;;;6.27;80.94
10732;BME280;5417;42.686;23.244;2022-11-15T05:21:24;94770.00;;;6.39;81.27
10732;BME280;5417;42.686;23.244;2022-11-15T05:23:51;94776.94;;;6.52;81.13
10732;BME280;5417;42.686;23.244;2022-11-15T05:26:19;94765.41;;;6.58;80.91
10732;BME280;5417;42.686;23.244;2022-11-15T05:28:52;94768.44;;;6.50;81.20
10732;BME280;5417;42.686;23.244;2022-11-15T05:31:19;94769.38;;;6.49;81.01
10732;BME280;5417;42.686;23.244;2022-11-15T05:33:46;94770.94;;;6.52;81.45
10732;BME280;5417;42.686;23.244;2022-11-15T05:36:20;94775.28;;;6.51;81.81
10732;BME280;5417;42.686;23.244;2022-11-15T05:38:49;94771.50;;;6.57;83.50
10732;BME280;5417;42.686;23.244;2022-11-15T05:41:21;94749.13;;;6.56;84.23
10732;BME280;5417;42.686;23.244;2022-11-15T05:43:51;94774.25;;;6.68;83.44
10732;BME280;5417;42.686;23.244;2022-11-15T05:46:21;94773.25;;;6.71;83.82
10732;BME280;5417;42.686;23.244;2022-11-15T05:48:50;94763.44;;;6.61;82.98
10732;BME280;5417;42.686;23.244;2022-11-15T05:51:20;94777.59;;;6.70;83.49
10732;BME280;5417;42.686;23.244;2022-11-15T05:53:50;94775.63;;;6.74;82.94
10732;BME280;5417;42.686;23.244;2022-11-15T05:56:18;94781.09;;;6.97;82.91
10732;BME280;5417;42.686;23.244;2022-11-15T05:58:47;94763.97;;;7.09;81.37
10732;BME280;5417;42.686;23.244;2022-11-15T06:01:16;94778.41;;;7.13;80.83
10732;BME280;5417;42.686;23.244;2022-11-15T06:03:46;94784.94;;;7.19;80.10
10732;BME280;5417;42.686;23.244;2022-11-15T06:06:16;94780.59;;;7.19;80.85
10732;BME280;5417;42.686;23.244;2022-11-15T06:08:43;94784.66;;;7.23;80.38
10732;BME280;5417;42.686;23.244;2022-11-15T06:11:13;94757.63;;;7.01;81.46
10732;BME280;5417;42.686;23.244;2022-11-15T06:13:45;94766.66;;;7.08;81.03
10732;BME280;5417;42.686;23.244;2022-11-15T06:16:19;94790.31;;;7.16;82.00
10732;BME280;5417;42.686;23.244;2022-11-15T06:18:46;94783.19;;;7.19;85.43
10732;BME280;5417;42.686;23.244;2022-11-15T06:21:13;94777.53;;;7.27;86.05
10732;BME280;5417;42.686;23.244;2022-11-15T06:23:40;94772.84;;;7.60;88.55
10732;BME280;5417;42.686;23.244;2022-11-15T06:26:12;94773.41;;;7.51;80.90
10732;BME280;5417;42.686;23.244;2022-11-15T06:29:33;94745.69;;;7.12;80.95
10732;BME280;5417;42.686;23.244;2022-11-15T06:32:32;94759.59;;;7.24;81.07
10732;BME280;5417;42.686;23.244;2022-11-15T06:38:08;94746.88;;;7.07;80.51
10732;BME280;5417;42.686;23.244;2022-11-15T06:38:54;94769.81;;;6.99;80.39
10732;BME280;5417;42.686;23.244;2022-11-15T06:41:23;94768.34;;;6.94;81.26
10732;BME280;5417;42.686;23.244;2022-11-15T06:43:50;94773.88;;;6.74;81.45
10732;BME280;5417;42.686;23.244;2022-11-15T06:46:17;94752.19;;;6.48;82.74
10732;BME280;5417;42.686;23.244;2022-11-15T06:52:09;94773.53;;;6.52;83.62
10732;BME280;5417;42.686;23.244;2022-11-15T06:54:57;94772.59;;;6.67;83.94
10732;BME280;5417;42.686;23.244;2022-11-15T07:00:58;94759.66;;;6.53;83.41
10732;BME280;5417;42.686;23.244;2022-11-15T07:07:26;94749.22;;;6.69;84.42
10732;BME280;5417;42.686;23.244;2022-11-15T07:10:10;94740.75;;;6.81;82.86
10732;BME280;5417;42.686;23.244;2022-11-15T07:13:17;94746.00;;;6.79;83.35
10732;BME280;5417;42.686;23.244;2022-11-15T07:15:49;94756.59;;;7.03;83.14
10732;BME280;5417;42.686;23.244;2022-11-15T07:21:35;94748.84;;;7.03;82.17
10732;BME280;5417;42.686;23.244;2022-11-15T07:24:05;94758.53;;;7.14;81.34
10732;BME280;5417;42.686;23.244;2022-11-15T07:26:34;94757.34;;;7.05;80.82
10732;BME280;5417;42.686;23.244;2022-11-15T07:29:00;94757.81;;;6.97;81.55
10732;BME280;5417;42.686;23.244;2022-11-15T07:31:28;94770.75;;;6.97;81.57
10732;BME280;5417;42.686;23.244;2022-11-15T07:34:00;94778.59;;;7.10;81.92
10732;BME280;5417;42.686;23.244;2022-11-15T07:36:30;94778.31;;;7.15;81.86
10732;BME280;5417;42.686;23.244;2022-11-15T07:39:00;94750.16;;;6.96;82.41
10732;BME280;5417;42.686;23.244;2022-11-15T07:41:31;94744.31;;;6.92;81.97
10732;BME280;5417;42.686;23.244;2022-11-15T07:43:59;94782.00;;;7.11;81.75
10732;BME280;5417;42.686;23.244;2022-11-15T07:46:27;94784.13;;;7.18;81.92
10732;BME280;5417;42.686;23.244;2022-11-15T07:48:53;94777.63;;;7.25;81.90
10732;BME280;5417;42.686;23.244;2022-11-15T07:51:20;94768.19;;;7.24;81.21
10732;BME280;5417;42.686;23.244;2022-11-15T07:53:47;94763.41;;;7.18;82.01
10732;BME280;5417;42.686;23.244;2022-11-15T07:56:15;94741.22;;;7.14;81.06
10732;BME280;5417;42.686;23.244;2022-11-15T07:58:55;94730.25;;;7.11;80.70
10732;BME280;5417;42.686;23.244;2022-11-15T08:01:27;94761.31;;;7.11;80.41
10732;BME280;5417;42.686;23.244;2022-11-15T08:03:55;94773.88;;;7.03;81.48
10732;BME280;5417;42.686;23.244;2022-11-15T08:06:22;94758.84;;;6.81;82.30
10732;BME280;5417;42.686;23.244;2022-11-15T08:08:49;94759.88;;;6.78;83.40
10732;BME280;5417;42.686;23.244;2022-11-15T08:11:16;94759.09;;;6.76;83.29
10732;BME280;5417;42.686;23.244;2022-11-15T08:13:47;94735.81;;;6.76;83.10
10732;BME280;5417;42.686;23.244;2022-11-15T08:16:16;94745.81;;;6.96;82.71
10732;BME280;5417;42.686;23.244;2022-11-15T08:18:48;94739.44;;;6.88;82.05
10732;BME280;5417;42.686;23.244;2022-11-15T08:21:18;94765.38;;;7.01;83.14
10732;BME280;5417;42.686;23.244;2022-11-15T08:23:55;94760.41;;;6.97;82.95
10732;BME280;5417;42.686;23.244;2022-11-15T08:26:26;94760.22;;;7.01;83.37
10732;BME280;5417;42.686;23.244;2022-11-15T08:29:02;94756.50;;;7.05;83.80
10732;BME280;5417;42.686;23.244;2022-11-15T08:31:30;94732.13;;;6.94;84.60
10732;BME280;5417;42.686;23.244;2022-11-15T08:33:58;94725.44;;;7.05;83.29
10732;BME280;5417;42.686;23.244;2022-11-15T08:36:28;94742.41;;;7.23;83.59
10732;BME280;5417;42.686;23.244;2022-11-15T08:38:55;94719.25;;;7.07;82.57
10732;BME280;5417;42.686;23.244;2022-11-15T08:41:25;94751.09;;;7.36;82.10
10732;BME280;5417;42.686;23.244;2022-11-15T08:43:53;94741.38;;;7.40;81.71
10732;BME280;5417;42.686;23.244;2022-11-15T08:46:22;94730.72;;;7.44;81.42
10732;BME280;5417;42.686;23.244;2022-11-15T08:48:49;94741.22;;;7.55;81.04
10732;BME280;5417;42.686;23.244;2022-11-15T08:51:18;94737.91;;;7.80;80.44
10732;BME280;5417;42.686;23.244;2022-11-15T08:53:45;94735.47;;;7.77;80.17
10732;BME280;5417;42.686;23.244;2022-11-15T08:56:15;94738.78;;;7.79;80.07
10732;BME280;5417;42.686;23.244;2022-11-15T08:58:42;94732.00;;;7.91;79.74
10732;BME280;5417;42.686;23.244;2022-11-15T09:04:52;94725.22;;;7.76;79.05
10732;BME280;5417;42.686;23.244;2022-11-15T09:07:20;94716.59;;;7.75;79.27
10732;BME280;5417;42.686;23.244;2022-11-15T09:09:47;94708.63;;;7.78;79.32
10732;BME280;5417;42.686;23.244;2022-11-15T09:12:14;94690.59;;;7.77;79.62
10732;BME280;5417;42.686;23.244;2022-11-15T09:14:41;94710.13;;;7.95;78.92
10732;BME280;5417;42.686;23.244;2022-11-15T09:17:09;94686.25;;;7.77;79.40
10732;BME280;5417;42.686;23.244;2022-11-15T09:19:36;94702.25;;;7.97;79.32
10732;BME280;5417;42.686;23.244;2022-11-15T09:22:06;94707.66;;;8.06;78.15
10732;BME280;5417;42.686;23.244;2022-11-15T09:24:36;94680.91;;;7.93;78.29
10732;BME280;5417;42.686;23.244;2022-11-15T09:27:04;94675.00;;;7.91;78.78
10732;BME280;5417;42.686;23.244;2022-11-15T09:29:33;94663.75;;;7.78;77.52
10732;BME280;5417;42.686;23.244;2022-11-15T09:32:00;94685.06;;;7.96;78.60
10732;BME280;5417;42.686;23.244;2022-11-15T09:34:27;94669.91;;;7.89;78.64
10732;BME280;5417;42.686;23.244;2022-11-15T09:36:54;94673.75;;;7.97;77.70
10732;BME280;5417;42.686;23.244;2022-11-15T09:39:23;94681.50;;;7.84;78.13
10732;BME280;5417;42.686;23.244;2022-11-15T09:42:01;94680.69;;;7.96;78.45
10732;BME280;5417;42.686;23.244;2022-11-15T09:44:47;94693.56;;;7.98;78.03
10732;BME280;5417;42.686;23.244;2022-11-15T09:47:38;94678.50;;;7.90;78.53
10732;BME280;5417;42.686;23.244;2022-11-15T09:50:12;94685.66;;;7.86;78.79
10732;BME280;5417;42.686;23.244;2022-11-15T09:52:44;94679.13;;;7.94;77.97
10732;BME280;5417;42.686;23.244;2022-11-15T09:55:13;94661.72;;;7.96;77.69
10732;BME280;5417;42.686;23.244;2022-11-15T09:57:56;94651.16;;;7.86;77.54
10732;BME280;5417;42.686;23.244;2022-11-15T10:00:40;94646.75;;;7.74;78.60
10732;BME280;5417;42.686;23.244;2022-11-15T10:03:11;94650.13;;;8.01;78.13
10732;BME280;5417;42.686;23.244;2022-11-15T10:05:40;94651.66;;;8.16;78.55
10732;BME280;5417;42.686;23.244;2022-11-15T10:08:27;94646.88;;;8.23;78.02
10732;BME280;5417;42.686;23.244;2022-11-15T10:10:57;94647.44;;;8.41;78.27
10732;BME280;5417;42.686;23.244;2022-11-15T10:13:30;94629.97;;;8.56;77.83
10732;BME280;5417;42.686;23.244;2022-11-15T10:16:07;94630.50;;;8.61;76.47
10732;BME280;5417;42.686;23.244;2022-11-15T10:18:44;94628.34;;;8.78;75.98
10732;BME280;5417;42.686;23.244;2022-11-15T10:21:22;94624.69;;;8.94;75.29
10732;BME280;5417;42.686;23.244;2022-11-15T10:23:52;94627.25;;;9.06;74.71
10732;BME280;5417;42.686;23.244;2022-11-15T10:26:21;94618.22;;;9.23;73.32
10732;BME280;5417;42.686;23.244;2022-11-15T10:28:49;94619.75;;;9.38;73.77
10732;BME280;5417;42.686;23.244;2022-11-15T10:31:23;94609.03;;;9.54;72.52
10732;BME280;5417;42.686;23.244;2022-11-15T10:33:52;94602.69;;;9.69;72.62
10732;BME280;5417;42.686;23.244;2022-11-15T10:36:25;94590.31;;;9.84;71.55
10732;BME280;5417;42.686;23.244;2022-11-15T10:38:57;94566.09;;;9.84;70.78
10732;BME280;5417;42.686;23.244;2022-11-15T10:41:38;94578.19;;;10.18;70.40
10732;BME280;5417;42.686;23.244;2022-11-15T10:44:20;94573.25;;;10.37;69.96
10732;BME280;5417;42.686;23.244;2022-11-15T10:47:03;94575.38;;;10.55;68.64
10732;BME280;5417;42.686;23.244;2022-11-15T10:49:31;94582.69;;;10.72;67.36
10732;BME280;5417;42.686;23.244;2022-11-15T10:52:00;94571.88;;;10.99;66.64
10732;BME280;5417;42.686;23.244;2022-11-15T10:54:39;94567.38;;;11.01;66.04
10732;BME280;5417;42.686;23.244;2022-11-15T10:57:12;94558.56;;;11.13;65.56
10732;BME280;5417;42.686;23.244;2022-11-15T10:59:44;94561.75;;;11.17;65.03
10732;BME280;5417;42.686;23.244;2022-11-15T11:02:28;94562.19;;;11.22;64.76
10732;BME280;5417;42.686;23.244;2022-11-15T11:04:55;94550.00;;;11.22;64.35
10732;BME280;5417;42.686;23.244;2022-11-15T11:07:24;94550.50;;;11.37;64.02
10732;BME280;5417;42.686;23.244;2022-11-15T11:09:57;94540.88;;;11.49;64.08
10732;BME280;5417;42.686;23.244;2022-11-15T11:12:27;94541.34;;;11.43;63.72
10732;BME280;5417;42.686;23.244;2022-11-15T11:14:57;94541.22;;;11.44;63.74
10732;BME280;5417;42.686;23.244;2022-11-15T11:17:32;94536.81;;;11.56;64.38
10732;BME280;5417;42.686;23.244;2022-11-15T11:20:09;94534.25;;;11.65;62.98
10732;BME280;5417;42.686;23.244;2022-11-15T11:22:41;94521.53;;;11.72;62.95
10732;BME280;5417;42.686;23.244;2022-11-15T11:25:19;94504.69;;;11.76;62.59
10732;BME280;5417;42.686;23.244;2022-11-15T11:28:01;94490.94;;;11.74;62.31
10732;BME280;5417;42.686;23.244;2022-11-15T11:30:43;94500.94;;;11.90;61.74
10732;BME280;5417;42.686;23.244;2022-11-15T11:33:16;94501.00;;;11.99;61.25
10732;BME280;5417;42.686;23.244;2022-11-15T11:35:55;94491.56;;;12.08;61.72
10732;BME280;5417;42.686;23.244;2022-11-15T11:38:40;94493.59;;;12.05;62.01
10732;BME280;5417;42.686;23.244;2022-11-15T11:41:15;94484.63;;;11.46;63.19
10732;BME280;5417;42.686;23.244;2022-11-15T11:43:51;94479.13;;;11.28;65.23
10732;BME280;5417;42.686;23.244;2022-11-15T11:46:38;94474.94;;;11.16;65.64
10732;BME280;5417;42.686;23.244;2022-11-15T11:49:16;94476.91;;;11.24;65.46
10732;BME280;5417;42.686;23.244;2022-11-15T11:51:48;94471.97;;;11.21;65.60
10732;BME280;5417;42.686;23.244;2022-11-15T11:54:20;94456.06;;;11.24;65.41
10732;BME280;5417;42.686;23.244;2022-11-15T11:56:50;94460.25;;;11.15;65.67
10732;BME280;5417;42.686;23.244;2022-11-15T11:59:23;94453.22;;;11.06;65.10
10732;BME280;5417;42.686;23.244;2022-11-15T12:01:54;94456.16;;;10.81;66.80
10732;BME280;5417;42.686;23.244;2022-11-15T12:04:26;94458.22;;;10.66;67.27
10732;BME280;5417;42.686;23.244;2022-11-15T12:06:59;94445.75;;;10.49;67.72
10732;BME280;5417;42.686;23.244;2022-11-15T12:09:32;94443.84;;;10.51;69.28
10732;BME280;5417;42.686;23.244;2022-11-15T12:12:06;94438.47;;;10.63;69.56
10732;BME280;5417;42.686;23.244;2022-11-15T12:14:40;94421.53;;;10.69;69.16
10732;BME280;5417;42.686;23.244;2022-11-15T12:17:13;94431.38;;;10.97;67.47
10732;BME280;5417;42.686;23.244;2022-11-15T12:19:40;94433.72;;;11.00;66.12
10732;BME280;5417;42.686;23.244;2022-11-15T12:22:13;94426.41;;;11.15;66.37
10732;BME280;5417;42.686;23.244;2022-11-15T12:24:47;94415.53;;;11.10;65.94
10732;BME280;5417;42.686;23.244;2022-11-15T12:27:21;94397.75;;;11.15;66.01
10732;BME280;5417;42.686;23.244;2022-11-15T12:29:55;94410.13;;;11.23;65.56
10732;BME280;5417;42.686;23.244;2022-11-15T12:32:28;94407.97;;;11.28;64.83
10732;BME280;5417;42.686;23.244;2022-11-15T12:34:56;94398.94;;;11.32;64.92
10732;BME280;5417;42.686;23.244;2022-11-15T12:40:28;94404.00;;;11.54;64.37
10732;BME280;5417;42.686;23.244;2022-11-15T12:43:02;94403.97;;;11.45;64.33
10732;BME280;5417;42.686;23.244;2022-11-15T12:45:31;94404.44;;;11.08;65.95
10732;BME280;5417;42.686;23.244;2022-11-15T12:51:00;94399.31;;;10.86;66.57
10732;BME280;5417;42.686;23.244;2022-11-15T12:53:28;94391.69;;;10.73;66.96
10732;BME280;5417;42.686;23.244;2022-11-15T12:56:21;94393.53;;;10.61;67.34
10732;BME280;5417;42.686;23.244;2022-11-15T12:58:50;94396.69;;;10.44;67.76
10732;BME280;5417;42.686;23.244;2022-11-15T13:01:54;94392.78;;;10.38;68.40
10732;BME280;5417;42.686;23.244;2022-11-15T13:04:25;94392.56;;;10.41;68.41
10732;BME280;5417;42.686;23.244;2022-11-15T13:06:56;94377.91;;;10.40;68.40
10732;BME280;5417;42.686;23.244;2022-11-15T13:09:52;94384.63;;;10.43;68.46
10732;BME280;5417;42.686;23.244;2022-11-15T13:12:55;94380.25;;;10.43;68.35
10732;BME280;5417;42.686;23.244;2022-11-15T13:18:31;94373.06;;;10.25;69.36
10732;BME280;5417;42.686;23.244;2022-11-15T13:20:59;94373.53;;;10.30;69.81
10732;BME280;5417;42.686;23.244;2022-11-15T13:23:28;94360.41;;;10.31;69.85
10732;BME280;5417;42.686;23.244;2022-11-15T13:26:09;94364.88;;;10.40;69.60
10732;BME280;5417;42.686;23.244;2022-11-15T13:28:41;94356.31;;;10.50;68.47
10732;BME280;5417;42.686;23.244;2022-11-15T13:31:33;94360.19;;;10.55;68.59
10732;BME280;5417;42.686;23.244;2022-11-15T13:34:03;94334.88;;;10.57;68.20
10732;BME280;5417;42.686;23.244;2022-11-15T13:36:32;94368.59;;;10.80;67.33
10732;BME280;5417;42.686;23.244;2022-11-15T13:39:04;94358.50;;;10.86;67.13
10732;BME280;5417;42.686;23.244;2022-11-15T13:41:33;94356.84;;;10.85;66.80
10732;BME280;5417;42.686;23.244;2022-11-15T13:44:01;94359.69;;;10.82;67.33
10732;BME280;5417;42.686;23.244;2022-11-15T13:46:31;94354.88;;;10.78;67.04
10732;BME280;5417;42.686;23.244;2022-11-15T13:49:01;94356.66;;;10.77;67.50
10732;BME280;5417;42.686;23.244;2022-11-15T13:51:36;94353.22;;;10.77;67.58
10732;BME280;5417;42.686;23.244;2022-11-15T13:54:12;94352.13;;;10.79;67.18
10732;BME280;5417;42.686;23.244;2022-11-15T13:56:42;94337.84;;;10.73;66.88
10732;BME280;5417;42.686;23.244;2022-11-15T13:59:17;94343.00;;;10.64;67.85
10732;BME280;5417;42.686;23.244;2022-11-15T14:01:51;94345.72;;;10.62;68.02
10732;BME280;5417;42.686;23.244;2022-11-15T14:04:22;94328.53;;;10.50;68.01
10732;BME280;5417;42.686;23.244;2022-11-15T14:06:58;94355.50;;;10.49;68.48
10732;BME280;5417;42.686;23.244;2022-11-15T14:09:33;94360.16;;;10.34;68.87
10732;BME280;5417;42.686;23.244;2022-11-15T14:12:02;94359.84;;;10.17;69.39
10732;BME280;5417;42.686;23.244;2022-11-15T14:14:30;94346.75;;;10.07;69.60